Current Weather

Sharurah

Sharurah, Saudi Arabia (OESH)

Report from: Tuesday, July 16, 2024 12:00 PM +03
Current time: Tuesday, July 16, 2024 1:05 PM +03

Nearby weather – Weather history – Daily summaries
Weather forecast

Temperature43.0°C (109.4°F)
Heat index39.2°C (102.6°F)
Dew point-1.0°C (30.2°F)
Winds 7 kts (3.6 m/s, 8.1 mph) Northeast (40°)
Clouds Sky clear
Altimeter29.65 in.Hg (1004 mB)
Relative humidity7 %
Density altitude3,528 ft. (1,075 m)
Remarks Ceiling and visibility OK
No significant changes expected in the next two hours
Flight conditions Visual Meteorological Conditions
Raw dataOESH 160900Z 04007KT CAVOK 43/M01 Q1004 NOSIG
An error has occurred. This application may no longer respond until reloaded. Reload 🗙